createdAt,value
2017-11-08T00:00:10.210Z,60.00
2017-11-08T00:02:43.890Z,60.20
2017-11-08T00:05:17.397Z,60.10
2017-11-08T00:07:50.894Z,60.20
2017-11-08T00:10:24.399Z,60.00
2017-11-08T00:12:57.890Z,60.20
2017-11-08T00:15:31.425Z,60.10
2017-11-08T00:18:05.189Z,60.20
2017-11-08T00:20:38.842Z,59.90
2017-11-08T00:23:12.498Z,60.10
2017-11-08T00:25:45.999Z,60.10
2017-11-08T00:28:19.549Z,60.00
2017-11-08T00:30:53.082Z,60.00
2017-11-08T00:33:26.663Z,60.20
2017-11-08T00:36:00.163Z,60.20
2017-11-08T00:38:33.896Z,60.20
2017-11-08T00:41:08.413Z,61.00
2017-11-08T00:43:42.763Z,60.20
2017-11-08T00:46:16.442Z,60.10
2017-11-08T00:48:50.010Z,60.20
2017-11-08T00:51:23.597Z,60.10
2017-11-08T00:53:57.446Z,60.10
2017-11-08T00:56:31.038Z,60.30
2017-11-08T00:59:04.598Z,60.30
2017-11-08T01:01:38.353Z,60.20
2017-11-08T01:04:11.853Z,60.00
2017-11-08T01:06:45.843Z,59.90
2017-11-08T01:09:19.461Z,59.80
2017-11-08T01:11:52.962Z,60.00
2017-11-08T01:14:26.870Z,60.30
2017-11-08T01:17:00.675Z,60.40
2017-11-08T01:19:34.964Z,59.90
2017-11-08T01:22:08.797Z,59.80
2017-11-08T01:24:42.249Z,59.90
2017-11-08T01:27:16.713Z,60.20
2017-11-08T01:29:50.291Z,60.20
2017-11-08T01:32:23.814Z,60.30
2017-11-08T01:34:57.414Z,60.10
2017-11-08T01:37:36.726Z,60.00
2017-11-08T01:40:11.050Z,60.10
2017-11-08T01:42:44.670Z,60.10
2017-11-08T01:45:18.342Z,60.30
2017-11-08T01:47:52.077Z,60.30
2017-11-08T01:50:27.825Z,60.20
2017-11-08T01:53:01.948Z,60.50
2017-11-08T01:55:38.619Z,60.50
2017-11-08T01:58:12.190Z,60.70
2017-11-08T02:00:45.686Z,60.80
2017-11-08T02:03:19.309Z,60.80
2017-11-08T02:05:52.806Z,60.90
2017-11-08T02:08:26.401Z,60.90
2017-11-08T02:11:00.818Z,60.90
2017-11-08T02:13:34.434Z,60.90
2017-11-08T02:16:08.025Z,60.90
2017-11-08T02:18:42.189Z,60.90
2017-11-08T02:21:15.805Z,60.90
2017-11-08T02:23:49.459Z,61.00
2017-11-08T02:26:28.950Z,61.10
2017-11-08T02:29:02.690Z,61.00
2017-11-08T02:31:36.201Z,60.90
2017-11-08T02:34:09.766Z,61.10
2017-11-08T02:39:11.874Z,60.90
2017-11-08T02:41:45.673Z,60.90
2017-11-08T02:44:19.261Z,60.80
2017-11-08T02:46:58.682Z,60.90
2017-11-08T02:49:32.385Z,60.90
2017-11-08T02:52:06.019Z,61.00
2017-11-08T02:54:39.521Z,61.00
2017-11-08T02:57:13.241Z,60.90
2017-11-08T02:59:49.893Z,61.40
2017-11-08T03:02:24.418Z,60.90
2017-11-08T03:05:02.688Z,60.60
2017-11-08T03:07:36.538Z,60.80
2017-11-08T03:10:10.143Z,61.00
2017-11-08T03:12:43.741Z,61.10
2017-11-08T03:15:17.421Z,61.00
2017-11-08T03:17:51.019Z,61.00
2017-11-08T03:20:24.597Z,61.10
2017-11-08T03:22:59.166Z,61.10
2017-11-08T03:25:32.657Z,61.10
2017-11-08T03:28:06.369Z,61.10
2017-11-08T03:30:39.963Z,61.70
2017-11-08T03:33:13.584Z,60.90
2017-11-08T03:35:47.061Z,60.90
2017-11-08T03:38:20.614Z,61.00
2017-11-08T03:40:54.265Z,61.20
2017-11-08T03:43:27.970Z,61.00
2017-11-08T03:46:01.662Z,60.90
2017-11-08T03:48:35.882Z,61.00
2017-11-08T03:51:09.605Z,61.10
2017-11-08T03:53:44.013Z,61.60
2017-11-08T03:56:17.482Z,60.90
2017-11-08T03:58:51.546Z,60.80
2017-11-08T04:01:25.238Z,61.00
2017-11-08T04:03:58.898Z,61.00
2017-11-08T04:06:32.425Z,61.10
2017-11-08T04:09:06.922Z,61.10
2017-11-08T04:11:40.763Z,61.10
2017-11-08T04:14:14.440Z,61.30
2017-11-08T04:16:48.059Z,61.10
2017-11-08T04:19:21.761Z,61.40
2017-11-08T04:21:55.362Z,61.60
2017-11-08T04:24:29.061Z,61.70
2017-11-08T04:27:02.766Z,61.60
2017-11-08T04:29:36.370Z,61.60
2017-11-08T04:32:09.938Z,61.70
2017-11-08T04:34:43.537Z,62.00
2017-11-08T04:37:17.274Z,62.30
2017-11-08T04:39:51.597Z,62.20
2017-11-08T04:42:25.193Z,62.20
2017-11-08T04:44:58.755Z,62.10
2017-11-08T04:47:32.635Z,62.20
2017-11-08T04:50:06.313Z,62.40
2017-11-08T04:52:40.414Z,62.50
2017-11-08T04:55:13.966Z,62.20
2017-11-08T04:57:47.561Z,62.50
2017-11-08T05:00:21.422Z,62.40
2017-11-08T05:02:55.046Z,62.40
2017-11-08T05:05:28.622Z,62.20
2017-11-08T05:08:02.221Z,62.60
2017-11-08T05:10:35.930Z,62.50
2017-11-08T05:13:09.630Z,62.60
2017-11-08T05:15:43.189Z,62.70
2017-11-08T05:18:16.937Z,62.60
2017-11-08T05:20:51.255Z,62.70
2017-11-08T05:23:24.986Z,62.70
2017-11-08T05:25:58.668Z,62.70
2017-11-08T05:28:32.373Z,62.60
2017-11-08T05:31:05.946Z,62.70
2017-11-08T05:33:40.277Z,62.60
2017-11-08T05:36:14.666Z,62.80
2017-11-08T05:38:48.161Z,62.50
2017-11-08T05:41:22.419Z,62.50
2017-11-08T05:43:55.913Z,62.70
2017-11-08T05:46:29.943Z,62.70
2017-11-08T05:49:03.521Z,62.80
2017-11-08T05:51:38.046Z,63.20
2017-11-08T05:54:12.058Z,62.50
2017-11-08T05:56:45.661Z,62.90
2017-11-08T05:59:19.218Z,62.80
2017-11-08T06:01:52.868Z,62.80
2017-11-08T06:04:26.666Z,62.70
2017-11-08T06:07:01.162Z,62.70
2017-11-08T06:09:34.759Z,62.70
2017-11-08T06:12:08.490Z,62.80
2017-11-08T06:14:41.990Z,62.70
2017-11-08T06:17:15.713Z,62.90
2017-11-08T06:19:50.215Z,63.10
2017-11-08T06:22:23.918Z,63.00
2017-11-08T06:24:57.514Z,63.00
2017-11-08T06:27:31.163Z,63.40
2017-11-08T06:30:04.822Z,63.40
2017-11-08T06:32:39.350Z,63.30
2017-11-08T06:35:12.994Z,63.20
2017-11-08T06:37:46.505Z,63.10
2017-11-08T06:40:20.046Z,63.30
2017-11-08T06:42:53.547Z,63.30
2017-11-08T06:45:27.109Z,63.40
2017-11-08T06:48:00.647Z,63.20
2017-11-08T06:50:34.091Z,63.10
2017-11-08T06:53:07.606Z,63.10
2017-11-08T06:55:41.221Z,63.20
2017-11-08T06:58:14.843Z,63.20
2017-11-08T07:00:48.494Z,63.50
2017-11-08T07:03:23.989Z,63.60
2017-11-08T07:05:57.635Z,63.50
2017-11-08T07:08:31.250Z,63.30
2017-11-08T07:11:04.934Z,63.40
2017-11-08T07:13:38.494Z,63.60
2017-11-08T07:16:12.075Z,63.50
2017-11-08T07:18:45.666Z,63.90
2017-11-08T07:21:19.246Z,64.00
2017-11-08T07:23:53.605Z,64.00
2017-11-08T07:26:28.034Z,64.50
2017-11-08T07:29:01.533Z,64.40
2017-11-08T07:31:35.990Z,64.60
2017-11-08T07:34:09.758Z,64.40
2017-11-08T07:36:43.201Z,64.20
2017-11-08T07:39:16.857Z,64.50
2017-11-08T07:41:50.458Z,64.40
2017-11-08T07:44:24.024Z,64.50
2017-11-08T07:46:57.518Z,64.20
2017-11-08T07:49:31.158Z,64.30
2017-11-08T07:52:06.806Z,64.60
2017-11-08T07:54:40.613Z,64.60
2017-11-08T07:57:14.310Z,64.60
2017-11-08T07:59:49.877Z,64.30
2017-11-08T08:02:23.567Z,64.40
2017-11-08T08:04:57.022Z,64.30
2017-11-08T08:07:36.999Z,64.30
2017-11-08T08:10:10.826Z,64.60
2017-11-08T08:12:44.402Z,64.60
2017-11-08T08:15:17.985Z,64.80
2017-11-08T08:17:51.518Z,64.80
2017-11-08T08:20:25.018Z,64.70
2017-11-08T08:22:58.827Z,64.80
2017-11-08T08:25:32.425Z,64.70
2017-11-08T08:28:06.121Z,64.80
2017-11-08T08:30:40.313Z,64.60
2017-11-08T08:33:14.545Z,64.70
2017-11-08T08:35:48.061Z,64.70
2017-11-08T08:38:21.667Z,64.80
2017-11-08T08:40:56.086Z,64.90
2017-11-08T08:43:29.881Z,65.40
2017-11-08T08:46:04.174Z,65.10
2017-11-08T08:48:38.002Z,65.10
2017-11-08T08:51:11.706Z,65.30
2017-11-08T08:53:45.357Z,65.30
2017-11-08T08:56:19.118Z,65.40
2017-11-08T08:58:53.126Z,65.20
2017-11-08T09:01:26.702Z,65.40
2017-11-08T09:04:00.322Z,65.50
2017-11-08T09:06:33.884Z,65.50
2017-11-08T09:09:07.429Z,65.50
2017-11-08T09:11:40.857Z,65.50
2017-11-08T09:14:15.346Z,65.50
2017-11-08T09:16:48.946Z,65.50
2017-11-08T09:19:22.758Z,65.60
2017-11-08T09:21:56.350Z,66.40
2017-11-08T09:24:34.554Z,65.60
2017-11-08T09:27:10.006Z,65.80
2017-11-08T09:29:46.242Z,65.50
2017-11-08T09:32:19.718Z,65.60
2017-11-08T09:34:56.338Z,65.60
2017-11-08T09:37:35.834Z,65.70
2017-11-08T09:40:10.403Z,65.50
2017-11-08T09:42:50.650Z,65.20
2017-11-08T09:45:24.145Z,65.60
2017-11-08T09:47:57.842Z,65.50
2017-11-08T09:50:32.382Z,65.50
2017-11-08T09:53:06.901Z,65.40
2017-11-08T09:55:43.477Z,65.40
2017-11-08T09:58:17.173Z,65.40
2017-11-08T10:00:51.570Z,65.60
2017-11-08T10:03:25.259Z,65.50
2017-11-08T10:05:59.017Z,65.60
2017-11-08T10:08:33.541Z,65.60
2017-11-08T10:11:07.141Z,65.70
2017-11-08T10:13:40.800Z,65.60
2017-11-08T10:16:19.018Z,65.60
2017-11-08T10:18:52.835Z,65.50
2017-11-08T10:21:27.262Z,66.50
2017-11-08T10:24:00.833Z,65.90
2017-11-08T10:26:34.350Z,66.40
2017-11-08T10:29:07.962Z,66.10
2017-11-08T10:31:41.770Z,65.90
2017-11-08T10:34:15.362Z,66.10
2017-11-08T10:36:49.754Z,67.30
2017-11-08T10:39:24.007Z,67.10
2017-11-08T10:41:57.712Z,67.30
2017-11-08T10:44:31.384Z,66.80
2017-11-08T10:47:05.078Z,67.00
2017-11-08T10:52:40.716Z,67.10
2017-11-08T10:55:14.347Z,67.50
2017-11-08T10:57:47.943Z,67.30
2017-11-08T11:00:27.239Z,67.20
2017-11-08T11:03:00.751Z,67.60
2017-11-08T11:05:34.393Z,67.70
2017-11-08T11:08:07.883Z,67.70
2017-11-08T11:10:41.587Z,67.90
2017-11-08T11:13:15.182Z,68.20
2017-11-08T11:15:48.779Z,68.00
2017-11-08T11:18:22.378Z,68.30
2017-11-08T11:20:56.059Z,68.20
2017-11-08T11:26:34.540Z,68.50
2017-11-08T11:29:08.227Z,68.70
2017-11-08T11:31:41.954Z,68.60
2017-11-08T11:34:15.438Z,68.40
2017-11-08T11:36:49.140Z,68.80
2017-11-08T11:39:23.572Z,68.70
2017-11-08T11:41:58.018Z,68.70
2017-11-08T11:44:31.591Z,68.50
2017-11-08T11:47:05.304Z,68.70
2017-11-08T11:49:40.326Z,69.00
2017-11-08T11:52:13.894Z,68.90
2017-11-08T11:54:47.630Z,69.20
2017-11-08T11:57:21.239Z,69.20
2017-11-08T11:59:54.743Z,69.10
2017-11-08T12:02:28.560Z,69.30
2017-11-08T12:05:02.203Z,69.30
2017-11-08T12:07:38.711Z,69.40
2017-11-08T12:10:12.426Z,69.50
2017-11-08T12:12:46.014Z,69.70
2017-11-08T12:15:21.548Z,69.50
2017-11-08T12:17:56.359Z,69.20
2017-11-08T12:20:29.991Z,69.20
2017-11-08T12:23:03.595Z,69.50
2017-11-08T12:25:37.079Z,69.40
2017-11-08T12:28:13.768Z,69.70
2017-11-08T12:30:47.575Z,69.90
2017-11-08T12:33:24.147Z,69.70
2017-11-08T12:35:58.531Z,69.40
2017-11-08T12:38:32.200Z,69.40
2017-11-08T12:41:05.689Z,69.80
2017-11-08T12:43:45.076Z,69.80
2017-11-08T12:46:18.907Z,69.40
2017-11-08T12:48:52.507Z,69.40
2017-11-08T12:51:26.167Z,69.70
2017-11-08T12:53:59.783Z,69.80
2017-11-08T12:56:35.003Z,69.50
2017-11-08T12:59:08.865Z,69.50
2017-11-08T13:01:42.355Z,69.50
2017-11-08T13:04:16.882Z,69.70
2017-11-08T13:06:50.435Z,69.70
2017-11-08T13:09:23.930Z,69.70
2017-11-08T13:11:57.995Z,69.80
2017-11-08T13:14:31.587Z,70.40
2017-11-08T13:17:05.151Z,69.90
2017-11-08T13:19:38.778Z,69.70
2017-11-08T13:22:12.355Z,69.60
2017-11-08T13:24:45.894Z,69.80
2017-11-08T13:27:19.594Z,69.70
2017-11-08T13:29:53.187Z,69.90
2017-11-08T13:32:27.718Z,70.00
2017-11-08T13:35:01.198Z,70.00
2017-11-08T13:37:34.818Z,69.80
2017-11-08T13:40:08.322Z,70.10
2017-11-08T13:42:42.803Z,70.70
2017-11-08T13:45:16.359Z,69.90
2017-11-08T13:47:50.095Z,69.80
2017-11-08T13:50:23.619Z,69.40
2017-11-08T13:52:57.242Z,69.80
2017-11-08T13:55:30.848Z,69.50
2017-11-08T13:58:04.547Z,70.00
2017-11-08T14:00:38.874Z,69.70
2017-11-08T14:03:13.258Z,69.60
2017-11-08T14:05:47.579Z,70.10
2017-11-08T14:08:21.306Z,70.10
2017-11-08T14:10:54.910Z,69.90
2017-11-08T14:13:28.421Z,70.50
2017-11-08T14:16:02.111Z,70.10
2017-11-08T14:18:36.416Z,70.10
2017-11-08T14:21:10.030Z,70.10
2017-11-08T14:23:43.634Z,70.30
2017-11-08T14:26:19.999Z,70.20
2017-11-08T14:28:53.690Z,69.90
2017-11-08T14:31:28.187Z,70.00
2017-11-08T14:34:01.719Z,69.90
2017-11-08T14:36:36.023Z,69.60
2017-11-08T14:39:09.747Z,69.60
2017-11-08T14:41:48.942Z,69.50
2017-11-08T14:44:22.679Z,69.80
2017-11-08T14:46:56.192Z,69.80
2017-11-08T14:49:29.991Z,69.70
2017-11-08T14:52:06.659Z,69.90
2017-11-08T14:54:40.363Z,70.10
2017-11-08T14:57:14.371Z,70.10
2017-11-08T14:59:47.879Z,70.10
2017-11-08T15:02:21.463Z,70.00
2017-11-08T15:04:55.030Z,69.50
2017-11-08T15:07:29.394Z,70.30
2017-11-08T15:10:02.967Z,70.30
2017-11-08T15:12:42.544Z,70.30
2017-11-08T15:15:22.890Z,69.90
2017-11-08T15:17:56.458Z,70.20
2017-11-08T15:20:30.054Z,70.20
2017-11-08T15:23:04.432Z,70.20
2017-11-08T15:25:38.215Z,70.20
2017-11-08T15:28:12.104Z,70.30
2017-11-08T15:30:45.519Z,70.20
2017-11-08T15:33:20.044Z,70.70
2017-11-08T15:35:53.652Z,70.60
2017-11-08T15:38:27.547Z,70.70
2017-11-08T15:41:01.134Z,70.70
2017-11-08T15:43:34.755Z,70.60
2017-11-08T15:46:08.250Z,70.80
2017-11-08T15:48:41.759Z,71.00
2017-11-08T15:51:16.043Z,70.60
2017-11-08T15:53:49.766Z,70.60
2017-11-08T15:56:23.455Z,70.70
2017-11-08T15:58:57.172Z,70.90
2017-11-08T16:01:30.863Z,70.80
2017-11-08T16:04:05.407Z,70.60
2017-11-08T16:06:39.110Z,70.80
2017-11-08T16:09:12.688Z,70.50
2017-11-08T16:11:46.410Z,70.70
2017-11-08T16:14:20.811Z,70.50
2017-11-08T16:16:55.219Z,70.50
2017-11-08T16:19:29.051Z,70.50
2017-11-08T16:22:03.383Z,70.10
2017-11-08T16:24:37.179Z,70.10
2017-11-08T16:27:10.884Z,69.70
2017-11-08T16:29:44.466Z,69.90
2017-11-08T16:32:20.015Z,70.00
2017-11-08T16:34:53.647Z,70.40
2017-11-08T16:37:27.330Z,70.40
2017-11-08T16:40:01.572Z,70.40
2017-11-08T16:42:35.254Z,70.40
2017-11-08T16:45:08.707Z,70.50
2017-11-08T16:47:42.218Z,70.40
2017-11-08T16:50:15.875Z,70.40
2017-11-08T16:52:49.407Z,70.40
2017-11-08T16:55:23.070Z,70.60
2017-11-08T16:57:57.346Z,70.60
2017-11-08T17:00:30.827Z,70.60
2017-11-08T17:03:04.339Z,70.40
2017-11-08T17:05:38.560Z,70.40
2017-11-08T17:08:12.754Z,70.70
2017-11-08T17:10:46.415Z,70.70
2017-11-08T17:13:20.695Z,71.00
2017-11-08T17:15:54.219Z,70.90
2017-11-08T17:18:28.499Z,71.10
2017-11-08T17:21:02.035Z,71.10
2017-11-08T17:23:35.569Z,71.10
2017-11-08T17:26:09.015Z,70.80
2017-11-08T17:28:42.570Z,70.50
2017-11-08T17:31:16.016Z,70.60
2017-11-08T17:33:50.423Z,70.80
2017-11-08T17:36:23.946Z,70.70
2017-11-08T17:38:57.496Z,70.50
2017-11-08T17:41:31.126Z,70.60
2017-11-08T17:44:04.643Z,70.90
2017-11-08T17:46:38.287Z,70.60
2017-11-08T17:49:11.876Z,70.60
2017-11-08T17:51:45.315Z,70.70
2017-11-08T17:54:18.839Z,70.60
2017-11-08T17:56:52.395Z,70.70
2017-11-08T17:59:25.848Z,70.70
2017-11-08T18:02:00.119Z,70.80
2017-11-08T18:04:33.652Z,70.80
2017-11-08T18:07:07.163Z,70.90
2017-11-08T18:09:40.607Z,70.40
2017-11-08T18:12:15.039Z,70.70
2017-11-08T18:14:48.571Z,70.70
2017-11-08T18:17:22.127Z,70.40
2017-11-08T18:19:55.780Z,70.30
2017-11-08T18:22:30.047Z,70.00
2017-11-08T18:25:03.579Z,70.00
2017-11-08T18:27:37.979Z,69.50
2017-11-08T18:30:11.514Z,69.50
2017-11-08T18:32:45.788Z,70.50
2017-11-08T18:35:19.318Z,70.50
2017-11-08T18:37:52.822Z,70.30
2017-11-08T18:40:26.299Z,70.60
2017-11-08T18:43:00.615Z,70.50
2017-11-08T18:45:34.137Z,70.50
2017-11-08T18:48:07.643Z,70.70
2017-11-08T18:50:41.093Z,70.70
2017-11-08T18:53:14.627Z,70.90
2017-11-08T18:55:48.279Z,70.90
2017-11-08T18:58:21.830Z,70.80
2017-11-08T19:00:55.275Z,70.70
2017-11-08T19:03:28.938Z,71.00
2017-11-08T19:06:02.382Z,71.10
2017-11-08T19:08:35.895Z,71.00
2017-11-08T19:11:10.103Z,70.60
2017-11-08T19:13:44.315Z,70.50
2017-11-08T19:16:17.870Z,70.50
2017-11-08T19:18:52.152Z,70.70
2017-11-08T19:21:25.630Z,70.70
2017-11-08T19:23:59.240Z,70.70
2017-11-08T19:26:32.911Z,70.30
2017-11-08T19:29:06.575Z,70.30
2017-11-08T19:31:40.211Z,70.00
2017-11-08T19:34:13.759Z,70.10
2017-11-08T19:36:47.286Z,70.30
2017-11-08T19:39:20.815Z,70.10
2017-11-08T19:41:54.253Z,70.10
2017-11-08T19:44:27.770Z,70.10
2017-11-08T19:47:01.408Z,70.20
2017-11-08T19:49:34.922Z,70.20
2017-11-08T19:52:08.476Z,69.60
2017-11-08T19:54:42.010Z,69.80
2017-11-08T19:57:15.671Z,70.00
2017-11-08T19:59:49.120Z,69.80
2017-11-08T20:02:22.679Z,69.70
2017-11-08T20:04:56.123Z,69.60
2017-11-08T20:07:29.634Z,69.50
2017-11-08T20:10:03.846Z,69.40
2017-11-08T20:12:38.087Z,69.40
2017-11-08T20:15:11.569Z,69.30
2017-11-08T20:17:45.102Z,68.80
2017-11-08T20:20:18.747Z,69.00
2017-11-08T20:22:52.255Z,69.00
2017-11-08T20:25:26.008Z,69.40
2017-11-08T20:27:59.538Z,69.50
2017-11-08T20:30:32.982Z,69.40
2017-11-08T20:33:06.499Z,69.30
2017-11-08T20:35:39.959Z,69.20
2017-11-08T20:38:14.167Z,69.40
2017-11-08T20:40:47.699Z,69.50
2017-11-08T20:43:22.098Z,69.60
2017-11-08T20:45:55.634Z,69.60
2017-11-08T20:48:29.167Z,69.20
2017-11-08T20:51:02.632Z,69.00
2017-11-08T20:53:36.226Z,69.00
2017-11-08T20:56:09.662Z,69.30
2017-11-08T20:58:43.179Z,69.40
2017-11-08T21:01:16.824Z,69.10
2017-11-08T21:03:51.103Z,69.20
2017-11-08T21:06:24.634Z,69.20
2017-11-08T21:08:58.146Z,69.50
2017-11-08T21:11:31.586Z,69.20
2017-11-08T21:14:05.226Z,69.30
2017-11-08T21:16:38.671Z,69.00
2017-11-08T21:19:12.345Z,69.50
2017-11-08T21:21:46.625Z,69.30
2017-11-08T21:24:20.849Z,69.50
2017-11-08T21:26:55.163Z,69.40
2017-11-08T21:29:28.631Z,69.40
2017-11-08T21:32:02.191Z,69.60
2017-11-08T21:34:35.834Z,69.40
2017-11-08T21:37:09.323Z,69.10
2017-11-08T21:39:42.831Z,68.90
2017-11-08T21:42:16.298Z,69.00
2017-11-08T21:44:49.936Z,69.30
2017-11-08T21:47:23.538Z,68.80
2017-11-08T21:49:57.046Z,68.60
2017-11-08T21:52:30.631Z,68.60
2017-11-08T21:55:04.975Z,68.70
2017-11-08T21:57:39.186Z,68.60
2017-11-08T22:00:13.398Z,68.80
2017-11-08T22:02:46.936Z,68.80
2017-11-08T22:05:20.470Z,68.50
2017-11-08T22:07:53.922Z,68.60
2017-11-08T22:10:27.468Z,68.70
2017-11-08T22:13:01.134Z,68.90
2017-11-08T22:15:34.579Z,68.70
2017-11-08T22:18:08.050Z,68.70
2017-11-08T22:20:48.274Z,68.70
2017-11-08T22:23:21.786Z,68.90
2017-11-08T22:25:56.072Z,68.60
2017-11-08T22:28:30.299Z,68.60
2017-11-08T22:31:03.758Z,68.60
2017-11-08T22:33:37.216Z,68.90
2017-11-08T22:36:10.859Z,69.00
2017-11-08T22:38:44.323Z,69.20
2017-11-08T22:41:17.762Z,69.20
2017-11-08T22:43:51.979Z,68.70
2017-11-08T22:46:26.187Z,68.70
2017-11-08T22:48:59.719Z,68.70
2017-11-08T22:51:33.285Z,68.70
2017-11-08T22:54:06.751Z,68.80
2017-11-08T22:56:40.532Z,68.80
2017-11-08T22:59:14.215Z,68.60
2017-11-08T23:01:47.847Z,68.60
2017-11-08T23:04:21.430Z,68.40
2017-11-08T23:06:55.184Z,68.50
2017-11-08T23:09:28.677Z,68.30
2017-11-08T23:12:03.255Z,68.70
2017-11-08T23:14:36.958Z,68.70
2017-11-08T23:17:10.663Z,68.70
2017-11-08T23:19:44.163Z,68.60
2017-11-08T23:22:17.750Z,68.60
2017-11-08T23:24:51.321Z,68.50
2017-11-08T23:27:24.965Z,68.40
2017-11-08T23:29:58.523Z,68.30
2017-11-08T23:32:32.059Z,68.50
2017-11-08T23:35:05.763Z,68.10
2017-11-08T23:37:39.323Z,68.20
2017-11-08T23:40:13.074Z,68.30
2017-11-08T23:42:47.308Z,68.20
2017-11-08T23:45:21.190Z,68.30
2017-11-08T23:47:54.658Z,68.50
2017-11-08T23:50:28.191Z,68.20
2017-11-08T23:53:03.955Z,68.30
2017-11-08T23:55:37.747Z,68.30
2017-11-08T23:58:11.446Z,68.50
